Time;durP1;ratioP1;P1;durP2;ratioP2;P2;SDS_P1;SDS_P2;PMS_P1;PMS_P2;Temp;Humidity;BMP_temperature;BMP_pressure;BME280_temperature;BME280_humidity;BME280_pressure;Samples;Min_cycle;Max_cycle;Signal;HPM_P1;HPM_P2
2022/12/29 00:00:11;;;;;;;7.70;4.03;;;;;;;-1.31;100.00;100759.19;6357835;27;20060;-78
2022/12/29 00:03:12;;;;;;;9.25;4.78;;;;;;;-1.28;100.00;100770.28;6324898;28;20058;-73
2022/12/29 00:06:13;;;;;;;3.58;3.15;;;;;;;-1.29;100.00;100773.69;6324691;28;20039;-78
2022/12/29 00:09:16;;;;;;;4.03;3.20;;;;;;;-1.36;100.00;100768.59;6324371;28;20161;-73
2022/12/29 00:12:17;;;;;;;5.88;4.00;;;;;;;-1.37;100.00;100772.84;6323098;28;20244;-73
2022/12/29 00:18:37;;;;;;;4.63;3.20;;;;;;;-1.34;100.00;100766.88;6324017;28;20500;-78
2022/12/29 00:35:07;;;;;;;6.10;3.75;;;;;;;-1.32;100.00;100765.16;6324187;28;20044;-78
2022/12/29 00:44:48;;;;;;;3.83;2.55;;;;;;;-1.29;100.00;100760.91;6323649;28;20515;-73
2022/12/29 00:47:49;;;;;;;9.88;5.20;;;;;;;-1.28;100.00;100762.59;6322149;28;20058;-77
2022/12/29 00:50:56;;;;;;;7.68;3.58;;;;;;;-1.25;100.00;100762.59;6321967;28;20047;-74
2022/12/29 00:53:56;;;;;;;7.75;3.35;;;;;;;-1.26;100.00;100772.84;6322217;28;20097;-73
2022/12/29 00:56:57;;;;;;;5.57;3.70;;;;;;;-1.28;100.00;100777.94;6323606;28;20044;-78
2022/12/29 00:59:58;;;;;;;3.03;2.75;;;;;;;-1.33;100.00;100766.03;6323298;28;20119;-78
2022/12/29 01:02:59;;;;;;;5.57;3.35;;;;;;;-1.40;100.00;100766.88;6323360;28;20058;-73
2022/12/29 01:06:01;;;;;;;5.38;2.42;;;;;;;-1.39;100.00;100763.47;6322947;28;20051;-73
2022/12/29 01:12:44;;;;;;;5.47;3.03;;;;;;;-1.53;100.00;100773.72;6322950;28;20048;-78
2022/12/29 01:15:52;;;;;;;5.82;3.00;;;;;;;-1.56;100.00;100769.44;6322257;28;20078;-73
2022/12/29 01:18:53;;;;;;;7.20;3.38;;;;;;;-1.56;100.00;100760.94;6320691;28;20185;-72
2022/12/29 01:21:54;;;;;;;6.57;4.38;;;;;;;-1.54;100.00;100757.50;6321408;28;20053;-73
2022/12/29 01:24:55;;;;;;;6.25;3.67;;;;;;;-1.46;100.00;100768.59;6321794;28;20479;-78
2022/12/29 01:27:55;;;;;;;7.53;3.60;;;;;;;-1.43;100.00;100755.78;6322664;28;20078;-73
2022/12/29 01:31:00;;;;;;;9.00;4.10;;;;;;;-1.47;100.00;100754.06;6321284;28;20468;-73
2022/12/29 01:34:01;;;;;;;8.85;4.68;;;;;;;-1.50;100.00;100754.09;6322344;28;20040;-73
2022/12/29 01:37:02;;;;;;;5.50;3.67;;;;;;;-1.53;100.00;100755.78;6322342;28;20094;-73
2022/12/29 01:40:04;;;;;;;2.75;2.53;;;;;;;-1.50;100.00;100748.13;6321168;28;20123;-78
2022/12/29 01:43:10;;;;;;;10.90;3.17;;;;;;;-1.54;100.00;100749.81;6321441;28;20052;-73
2022/12/29 01:46:34;;;;;;;4.18;3.10;;;;;;;-1.52;100.00;100752.41;6322343;28;20040;-78
2022/12/29 01:49:37;;;;;;;9.05;3.50;;;;;;;-1.55;100.00;100750.66;6321173;28;20101;-78
2022/12/29 01:52:43;;;;;;;5.53;3.35;;;;;;;-1.52;100.00;100745.56;6321790;28;20502;-78
2022/12/29 01:55:51;;;;;;;5.80;2.78;;;;;;;-1.53;100.00;100750.69;6320766;28;20105;-78
2022/12/29 01:59:00;;;;;;;6.65;3.05;;;;;;;-1.54;100.00;100744.72;6320980;28;20130;-78
2022/12/29 02:02:01;;;;;;;3.45;2.63;;;;;;;-1.64;100.00;100743.84;6321099;28;20486;-78
2022/12/29 02:05:11;;;;;;;4.60;2.55;;;;;;;-1.65;100.00;100746.41;6320540;28;20526;-73
2022/12/29 02:08:15;;;;;;;9.82;3.72;;;;;;;-1.70;100.00;100736.19;6320597;28;20040;-78
2022/12/29 02:11:16;;;;;;;10.73;3.78;;;;;;;-1.69;100.00;100735.34;6321132;28;20047;-78
2022/12/29 02:14:17;;;;;;;3.42;3.13;;;;;;;-1.73;100.00;100732.75;6335020;27;20052;-78
2022/12/29 02:17:42;;;;;;;9.75;3.33;;;;;;;-1.75;100.00;100735.34;6314725;28;20051;-78
2022/12/29 02:21:05;;;;;;;3.63;3.08;;;;;;;-1.71;100.00;100736.16;6319303;28;20127;-73
2022/12/29 02:24:29;;;;;;;3.88;2.92;;;;;;;-1.80;100.00;100724.22;6302502;28;20121;-72
2022/12/29 02:27:48;;;;;;;5.03;2.83;;;;;;;-1.84;100.00;100718.25;6294940;28;20056;-78
2022/12/29 02:31:20;;;;;;;4.35;3.30;;;;;;;-1.87;100.00;100715.72;6295185;28;20041;-78
2022/12/29 02:34:27;;;;;;;6.82;3.33;;;;;;;-1.94;100.00;100713.13;6294196;28;20044;-78
2022/12/29 02:37:56;;;;;;;4.18;2.58;;;;;;;-1.96;100.00;100714.84;6294303;28;20381;-78
2022/12/29 02:41:19;;;;;;;3.00;2.42;;;;;;;-1.87;100.00;100717.41;6310315;28;20052;-78
2022/12/29 02:44:22;;;;;;;6.38;2.40;;;;;;;-1.86;100.00;100708.88;6292037;28;20041;-78
2022/12/29 02:47:23;;;;;;;6.97;3.65;;;;;;;-1.88;100.00;100710.59;6295389;28;20040;-78
2022/12/29 02:50:31;;;;;;;3.78;3.13;;;;;;;-1.92;100.00;100707.16;6313458;28;20777;-78
2022/12/29 02:56:56;;;;;;;14.55;4.20;;;;;;;-1.99;100.00;100707.19;6304994;28;20048;-72
2022/12/29 03:00:08;;;;;;;13.85;4.00;;;;;;;-1.99;100.00;100709.72;6302959;28;20067;-72
2022/12/29 03:03:36;;;;;;;4.93;2.90;;;;;;;-2.00;100.00;100698.63;6294455;28;20479;-77
2022/12/29 03:06:56;;;;;;;6.47;3.33;;;;;;;-1.98;100.00;100698.63;6299711;28;20770;-78
2022/12/29 03:10:35;;;;;;;4.50;2.95;;;;;;;-2.00;100.00;100692.66;6300924;28;20098;-78
2022/12/29 03:17:24;;;;;;;4.85;2.88;;;;;;;-2.05;100.00;100685.84;6323417;28;20047;-77
2022/12/29 03:20:35;;;;;;;11.80;4.60;;;;;;;-2.08;100.00;100683.31;6324877;28;20105;-78
2022/12/29 03:23:40;;;;;;;5.25;4.07;;;;;;;-2.06;100.00;100691.81;6325744;28;20051;-78
2022/12/29 03:26:44;;;;;;;5.35;3.45;;;;;;;-2.03;100.00;100681.59;6325693;28;20068;-72
2022/12/29 03:29:53;;;;;;;4.53;2.90;;;;;;;-2.04;100.00;100682.44;6314008;28;20047;-73
2022/12/29 03:33:02;;;;;;;5.30;3.05;;;;;;;-2.04;100.00;100685.00;6280765;28;20080;-78
2022/12/29 03:36:07;;;;;;;11.20;3.83;;;;;;;-2.06;100.00;100684.16;6310970;28;20093;-73
2022/12/29 03:39:13;;;;;;;4.28;2.85;;;;;;;-2.08;100.00;100684.97;6297839;28;20403;-73
2022/12/29 03:42:18;;;;;;;4.47;3.28;;;;;;;-2.12;100.00;100686.72;6297800;28;20109;-73
2022/12/29 03:45:20;;;;;;;11.13;3.85;;;;;;;-2.11;100.00;100685.84;6304069;28;20065;-72
2022/12/29 03:48:20;;;;;;;5.82;3.35;;;;;;;-2.08;100.00;100674.75;6322679;28;20463;-72
2022/12/29 03:51:21;;;;;;;3.85;2.70;;;;;;;-2.16;100.00;100672.22;6298498;28;20044;-72
2022/12/29 03:54:22;;;;;;;4.50;2.88;;;;;;;-2.21;100.00;100671.34;6297571;28;20049;-78
2022/12/29 03:57:25;;;;;;;8.60;3.65;;;;;;;-2.18;100.00;100683.25;6298618;28;20044;-78
2022/12/29 04:00:26;;;;;;;4.63;3.33;;;;;;;-2.22;100.00;100695.22;6297295;28;20045;-77
2022/12/29 04:03:27;;;;;;;10.93;3.33;;;;;;;-2.25;100.00;100693.47;6297316;28;20557;-78
2022/12/29 04:06:28;;;;;;;3.50;2.92;;;;;;;-2.25;100.00;100702.88;6298384;28;20051;-77
2022/12/29 04:09:29;;;;;;;6.63;3.40;;;;;;;-2.29;100.00;100693.47;6297222;28;20040;-78
2022/12/29 04:12:30;;;;;;;12.93;4.37;;;;;;;-2.27;100.00;100692.63;6297039;28;20119;-78
2022/12/29 04:15:31;;;;;;;8.70;2.92;;;;;;;-2.35;100.00;100685.81;6296827;28;20109;-78
2022/12/29 04:18:34;;;;;;;3.35;2.78;;;;;;;-2.36;100.00;100691.78;6297007;28;20041;-78
2022/12/29 04:21:37;;;;;;;4.75;3.53;;;;;;;-2.37;100.00;100690.06;6296687;28;20124;-78
2022/12/29 04:24:38;;;;;;;13.80;5.78;;;;;;;-2.38;100.00;100688.38;6296860;28;20511;-78
2022/12/29 04:27:41;;;;;;;4.93;2.80;;;;;;;-2.38;100.00;100693.47;6312787;28;20044;-78
2022/12/29 04:30:43;;;;;;;4.10;3.38;;;;;;;-2.47;100.00;100691.72;6322945;28;20518;-77
2022/12/29 04:33:44;;;;;;;6.20;2.35;;;;;;;-2.39;100.00;100697.72;6322558;28;20135;-72
2022/12/29 04:36:45;;;;;;;7.53;4.03;;;;;;;-2.41;100.00;100696.00;6322843;28;20044;-72
2022/12/29 04:39:46;;;;;;;3.58;3.03;;;;;;;-2.35;100.00;100690.91;6321565;28;20040;-72
2022/12/29 04:42:47;;;;;;;6.03;3.50;;;;;;;-2.35;100.00;100688.34;6321383;28;20503;-78
2022/12/29 04:45:48;;;;;;;8.32;4.53;;;;;;;-2.35;100.00;100693.47;6322531;28;20109;-73
2022/12/29 04:48:48;;;;;;;13.60;3.47;;;;;;;-2.38;100.00;100686.66;6321346;28;20043;-73
2022/12/29 04:51:49;;;;;;;7.10;3.50;;;;;;;-2.39;100.00;100691.75;6322197;28;20044;-73
2022/12/29 04:54:50;;;;;;;7.72;2.58;;;;;;;-2.47;100.00;100681.50;6315490;28;20040;-72
2022/12/29 04:57:51;;;;;;;7.28;3.90;;;;;;;-2.43;100.00;100698.56;6314461;28;20111;-73
2022/12/29 05:00:52;;;;;;;7.70;3.83;;;;;;;-2.52;100.00;100696.00;6338784;28;20054;-72
2022/12/29 05:03:52;;;;;;;4.45;2.33;;;;;;;-2.53;100.00;100707.94;6316312;28;20045;-72
2022/12/29 05:06:53;;;;;;;5.28;2.40;;;;;;;-2.45;100.00;100713.03;6297370;28;20040;-72
2022/12/29 05:09:54;;;;;;;10.35;4.90;;;;;;;-2.44;100.00;100707.09;6297134;28;20041;-77
2022/12/29 05:12:55;;;;;;;5.95;4.30;;;;;;;-2.48;100.00;100698.56;6296385;28;20049;-77
2022/12/29 05:15:55;;;;;;;5.35;2.95;;;;;;;-2.51;100.00;100701.13;6296771;28;20056;-73
2022/12/29 05:18:56;;;;;;;12.70;3.72;;;;;;;-2.55;100.00;100695.97;6300729;28;20037;-73
2022/12/29 05:21:57;;;;;;;7.30;5.03;;;;;;;-2.54;100.00;100695.13;6297618;28;20040;-72
2022/12/29 05:24:58;;;;;;;7.70;4.35;;;;;;;-2.47;100.00;100681.50;6296439;28;20041;-78
2022/12/29 05:27:58;;;;;;;12.02;5.07;;;;;;;-2.50;100.00;100700.25;6295575;28;20067;-77
2022/12/29 05:30:59;;;;;;;5.40;3.25;;;;;;;-2.50;100.00;100702.81;6297381;28;20535;-73
2022/12/29 05:34:00;;;;;;;6.75;3.40;;;;;;;-2.55;100.00;100699.41;6297139;28;20053;-72
2022/12/29 05:37:02;;;;;;;5.15;2.97;;;;;;;-2.57;100.00;100698.53;6302935;28;20045;-72
2022/12/29 05:40:03;;;;;;;6.35;3.58;;;;;;;-2.57;100.00;100690.88;6303973;28;20036;-73
2022/12/29 05:43:05;;;;;;;8.93;5.13;;;;;;;-2.58;100.00;100691.72;6319974;28;20404;-73
2022/12/29 05:46:05;;;;;;;8.60;4.55;;;;;;;-2.59;100.00;100684.03;6320032;28;20044;-78
2022/12/29 05:49:06;;;;;;;18.77;4.40;;;;;;;-2.58;100.00;100694.25;6314755;28;20412;-77
2022/12/29 05:52:07;;;;;;;15.02;4.22;;;;;;;-2.58;100.00;100689.16;6319654;28;20127;-77
2022/12/29 05:55:08;;;;;;;8.40;4.35;;;;;;;-2.55;100.00;100689.19;6319947;28;20047;-72
2022/12/29 05:58:10;;;;;;;9.52;4.68;;;;;;;-2.58;100.00;100681.50;6319887;28;20040;-73
2022/12/29 06:01:10;;;;;;;6.35;4.85;;;;;;;-2.56;100.00;100679.78;6320847;28;20075;-72
2022/12/29 06:04:11;;;;;;;19.40;9.43;;;;;;;-2.50;100.00;100679.81;6320835;28;20036;-73
2022/12/29 06:07:12;;;;;;;14.27;8.45;;;;;;;-2.55;100.00;100672.97;6306257;28;20043;-72
2022/12/29 06:10:13;;;;;;;7.45;4.95;;;;;;;-2.57;100.00;100662.78;6297802;28;20041;-77
2022/12/29 06:13:14;;;;;;;9.45;6.60;;;;;;;-2.48;100.00;100664.50;6302936;28;20048;-78
2022/12/29 06:16:14;;;;;;;8.40;4.93;;;;;;;-2.44;100.00;100661.94;6294473;28;20116;-73
2022/12/29 06:19:15;;;;;;;13.13;5.18;;;;;;;-2.44;100.00;100663.66;6295406;28;20115;-73
2022/12/29 06:22:16;;;;;;;9.98;5.07;;;;;;;-2.44;100.00;100663.66;6295308;28;20127;-72
2022/12/29 06:25:17;;;;;;;5.45;3.92;;;;;;;-2.40;100.00;100667.91;6308040;28;20174;-72
2022/12/29 06:28:18;;;;;;;9.15;5.70;;;;;;;-2.32;100.00;100671.34;6319201;28;20508;-72
2022/12/29 06:31:19;;;;;;;8.60;5.10;;;;;;;-2.32;100.00;100667.94;6318889;28;20039;-78
2022/12/29 06:34:19;;;;;;;10.25;4.22;;;;;;;-2.32;100.00;100671.34;6320654;28;20036;-77
2022/12/29 06:37:22;;;;;;;3.13;2.78;;;;;;;-2.26;100.00;100680.72;6320721;28;20090;-78
2022/12/29 06:40:24;;;;;;;14.40;6.03;;;;;;;-2.25;100.00;100679.84;6325549;28;20115;-72
2022/12/29 06:43:24;;;;;;;9.82;5.97;;;;;;;-2.29;100.00;100668.75;6325439;28;20102;-72
2022/12/29 06:46:25;;;;;;;10.43;5.43;;;;;;;-2.18;100.00;100685.81;6325448;28;20043;-73
2022/12/29 06:49:26;;;;;;;10.93;5.90;;;;;;;-2.11;100.00;100678.16;6325422;28;20039;-72
2022/12/29 06:52:28;;;;;;;10.93;5.68;;;;;;;-2.11;100.00;100685.84;6325143;28;20043;-72
2022/12/29 06:55:29;;;;;;;9.70;4.60;;;;;;;-2.10;100.00;100689.25;6345736;27;20063;-73
2022/12/29 06:58:29;;;;;;;10.07;4.90;;;;;;;-2.01;100.00;100688.41;6325104;28;20111;-74
2022/12/29 07:01:30;;;;;;;7.68;4.95;;;;;;;-2.03;100.00;100690.97;6306711;28;20044;-79
2022/12/29 07:04:31;;;;;;;10.75;3.50;;;;;;;-1.99;100.00;100679.88;6337093;27;20051;-79
2022/12/29 07:07:32;;;;;;;9.32;4.03;;;;;;;-1.92;100.00;100679.03;6285783;28;20120;-79
2022/12/29 07:10:33;;;;;;;3.67;2.95;;;;;;;-1.90;100.00;100673.91;6281856;28;20040;-73
2022/12/29 07:13:34;;;;;;;7.32;3.15;;;;;;;-1.82;100.00;100677.31;6299543;28;20404;-78
2022/12/29 07:16:37;;;;;;;15.20;6.32;;;;;;;-1.72;100.00;100673.06;6308607;28;20450;-79
2022/12/29 07:19:38;;;;;;;10.57;5.53;;;;;;;-1.62;100.00;100662.81;6320078;28;20471;-79
2022/12/29 07:22:42;;;;;;;11.05;5.38;;;;;;;-1.60;100.00;100659.41;6313187;28;20153;-79
2022/12/29 07:25:43;;;;;;;5.95;4.22;;;;;;;-1.55;100.00;100660.25;6321995;28;20040;-79
2022/12/29 07:28:44;;;;;;;8.32;4.43;;;;;;;-1.47;100.00;100664.50;6319167;28;20048;-79
2022/12/29 07:31:45;;;;;;;12.07;5.85;;;;;;;-1.35;100.00;100655.94;6298887;28;20099;-73
2022/12/29 07:34:47;;;;;;;11.18;7.07;;;;;;;-1.17;100.00;100664.41;6304770;28;20058;-73
2022/12/29 07:37:48;;;;;;;14.13;9.07;;;;;;;-1.13;100.00;100656.72;6309261;28;20037;-73
2022/12/29 07:40:51;;;;;;;7.75;5.93;;;;;;;-1.10;100.00;100651.59;6306402;28;20052;-73
2022/12/29 07:43:54;;;;;;;8.60;4.53;;;;;;;-0.91;100.00;100660.03;6305742;28;20481;-73
2022/12/29 07:46:55;;;;;;;12.20;5.45;;;;;;;-0.78;100.00;100662.56;6310006;28;20127;-74
2022/12/29 07:49:55;;;;;;;10.10;5.97;;;;;;;-0.68;100.00;100675.34;6297385;28;20516;-74
2022/12/29 07:52:56;;;;;;;9.05;6.57;;;;;;;-0.52;100.00;100677.81;6310938;28;20544;-80
2022/12/29 07:55:57;;;;;;;9.43;6.03;;;;;;;-0.43;100.00;100680.34;6296520;28;20090;-79
2022/12/29 07:58:58;;;;;;;11.85;4.75;;;;;;;-0.29;100.00;100677.66;6322811;28;20040;-73
2022/12/29 08:01:59;;;;;;;20.00;7.15;;;;;;;-0.03;100.00;100687.75;6302674;28;20052;-73
2022/12/29 08:05:00;;;;;;;8.32;6.13;;;;;;;0.18;100.00;100679.03;6301814;28;20043;-80
2022/12/29 08:08:01;;;;;;;9.15;4.38;;;;;;;0.27;100.00;100680.66;6287940;28;20094;-74
2022/12/29 08:11:01;;;;;;;6.70;3.67;;;;;;;0.38;99.46;100700.25;6294327;28;20052;-77
2022/12/29 08:14:03;;;;;;;6.50;4.53;;;;;;;0.46;98.50;100696.78;6305036;28;20107;-73
2022/12/29 08:17:04;;;;;;;4.45;2.65;;;;;;;0.50;97.99;100691.59;6323403;28;20506;-73
2022/12/29 08:20:05;;;;;;;5.38;3.20;;;;;;;0.59;96.79;100690.63;6305804;28;20040;-73
2022/12/29 08:23:06;;;;;;;4.10;3.20;;;;;;;0.91;95.36;100682.59;6296862;28;20048;-78
2022/12/29 08:26:07;;;;;;;11.43;5.97;;;;;;;1.17;93.83;100679.75;6296849;28;20048;-78
2022/12/29 08:42:09;;;;;;;14.48;6.40;;;;;;;2.32;86.55;100677.16;6394930;27;20382;-74
2022/12/29 08:45:10;;;;;;;8.55;4.22;;;;;;;2.69;85.24;100673.94;6393668;27;20035;-74
2022/12/29 08:48:11;;;;;;;6.03;3.17;;;;;;;2.93;83.44;100676.94;6393537;27;20091;-74
2022/12/29 08:51:12;;;;;;;5.85;2.70;;;;;;;3.02;81.12;100675.00;6393191;27;20043;-75
2022/12/29 08:54:13;;;;;;;2.92;2.05;;;;;;;3.02;82.17;100682.75;6374228;27;20043;-74
2022/12/29 08:57:14;;;;;;;4.00;2.72;;;;;;;2.93;82.05;100682.09;6392660;27;20070;-78
2022/12/29 09:00:15;;;;;;;3.38;1.88;;;;;;;2.78;82.75;100685.81;6373643;27;20059;-74
2022/12/29 09:03:16;;;;;;;3.30;1.90;;;;;;;2.58;81.64;100689.59;6374629;27;20481;-74
2022/12/29 09:06:17;;;;;;;9.18;2.95;;;;;;;2.54;83.50;100684.53;6371421;27;20047;-83
2022/12/29 09:09:18;;;;;;;2.58;1.73;;;;;;;2.45;83.63;100664.97;6392230;27;20047;-80
2022/12/29 09:12:19;;;;;;;2.67;2.22;;;;;;;2.53;83.69;100664.78;6393929;27;20042;-79
2022/12/29 09:15:20;;;;;;;3.85;2.72;;;;;;;2.80;83.46;100666.00;6393776;27;20046;-75
2022/12/29 09:18:21;;;;;;;11.50;2.53;;;;;;;3.06;82.14;100662.91;6393568;27;20046;-75
2022/12/29 09:21:23;;;;;;;4.35;1.90;;;;;;;2.99;82.01;100651.88;6380550;27;20039;-76
2022/12/29 09:24:23;;;;;;;1.40;1.25;;;;;;;3.04;82.08;100662.09;6366672;28;20482;-81
2022/12/29 09:27:24;;;;;;;6.05;2.88;;;;;;;3.06;82.93;100644.03;6367405;28;20035;-83
2022/12/29 09:30:25;;;;;;;4.03;2.35;;;;;;;3.01;83.80;100639.81;6366816;27;20068;-84
2022/12/29 09:33:26;;;;;;;4.90;2.78;;;;;;;3.10;83.31;100643.94;6367760;28;20036;-80
2022/12/29 09:36:29;;;;;;;3.92;2.28;;;;;;;3.08;83.78;100644.84;6366213;27;20401;-82
2022/12/29 09:39:30;;;;;;;8.40;2.80;;;;;;;3.10;84.40;100640.50;6348898;28;20477;-83
2022/12/29 09:42:50;;;;;;;5.55;2.15;;;;;;;3.09;84.37;100641.38;6353856;28;20051;-76
2022/12/29 09:46:09;;;;;;;5.35;2.50;;;;;;;3.07;85.46;100645.72;6350381;28;20436;-81
2022/12/29 09:49:28;;;;;;;2.78;2.08;;;;;;;3.49;84.40;100632.78;6331689;28;20051;-75
2022/12/29 09:52:37;;;;;;;2.47;1.65;;;;;;;3.81;83.94;100626.91;6349025;28;20052;-75
2022/12/29 09:55:47;;;;;;;12.43;2.85;;;;;;;4.05;82.67;100633.16;6348823;28;20031;-76
2022/12/29 09:59:01;;;;;;;3.20;1.83;;;;;;;4.18;81.02;100625.97;6349072;27;20052;-79
2022/12/29 10:02:31;;;;;;;3.97;1.77;;;;;;;4.00;81.18;100628.13;6367368;27;20039;-79
2022/12/29 10:05:46;;;;;;;2.60;1.40;;;;;;;3.92;82.49;100626.63;6369703;27;20089;-79
2022/12/29 10:09:08;;;;;;;2.08;1.83;;;;;;;4.02;82.95;100621.19;6349919;28;20035;-77
2022/12/29 10:12:17;;;;;;;5.75;3.17;;;;;;;4.20;81.85;100624.19;6348747;28;20046;-75
2022/12/29 10:15:29;;;;;;;3.20;1.92;;;;;;;4.56;81.15;100624.97;6348235;28;20466;-75
2022/12/29 10:18:48;;;;;;;3.67;2.50;;;;;;;4.39;80.91;100624.56;6349527;28;20040;-76
2022/12/29 10:22:20;;;;;;;9.40;3.80;;;;;;;4.48;83.15;100619.16;6349079;28;20063;-82
2022/12/29 10:25:26;;;;;;;12.20;5.53;;;;;;;4.58;82.51;100622.34;6348297;28;20039;-76
2022/12/29 10:28:44;;;;;;;6.68;4.32;;;;;;;4.69;82.74;100619.47;6330774;28;20078;-81
2022/12/29 10:32:01;;;;;;;5.07;2.63;;;;;;;4.89;81.51;100614.56;6351384;27;20106;-76
2022/12/29 10:35:20;;;;;;;6.45;3.50;;;;;;;4.81;83.11;100611.38;6348857;28;20063;-76
2022/12/29 10:38:30;;;;;;;1.85;1.67;;;;;;;4.81;83.53;100621.69;6361424;27;20039;-81
2022/12/29 10:41:51;;;;;;;4.13;2.47;;;;;;;5.04;82.56;100605.53;6370931;27;20056;-76
2022/12/29 10:44:53;;;;;;;4.82;1.95;;;;;;;5.39;81.49;100608.78;6348557;28;20123;-81
2022/12/29 10:48:14;;;;;;;6.00;3.15;;;;;;;5.42;81.43;100604.38;6369974;27;20409;-81
2022/12/29 10:51:25;;;;;;;5.50;2.90;;;;;;;4.95;84.03;100585.13;6374229;27;20051;-80
2022/12/29 10:54:46;;;;;;;6.20;3.20;;;;;;;4.76;85.51;100570.13;6373216;27;20099;-76
2022/12/29 10:57:56;;;;;;;3.47;2.08;;;;;;;4.67;87.16;100565.22;6372105;27;20043;-76
2022/12/29 11:01:00;;;;;;;3.28;2.20;;;;;;;4.69;88.07;100553.09;6372494;27;20043;-76
2022/12/29 11:04:26;;;;;;;4.25;2.40;;;;;;;4.69;88.81;100571.19;6373742;27;20157;-76
2022/12/29 11:07:26;;;;;;;1.90;1.45;;;;;;;4.81;88.60;100551.91;6373176;27;20035;-81
2022/12/29 11:10:38;;;;;;;4.80;2.70;;;;;;;4.71;89.90;100556.47;6372091;27;20446;-80
2022/12/29 11:13:51;;;;;;;2.97;2.27;;;;;;;4.68;90.46;100546.25;6372848;27;20062;-83
2022/12/29 11:17:00;;;;;;;6.93;2.88;;;;;;;4.69;91.36;100541.91;6372240;27;20031;-75
2022/12/29 11:20:28;;;;;;;3.17;2.67;;;;;;;4.64;92.34;100531.72;6371351;27;20416;-81
2022/12/29 11:23:37;;;;;;;6.32;3.03;;;;;;;4.70;92.14;100543.63;6373379;27;20043;-81
2022/12/29 11:26:39;;;;;;;8.73;3.10;;;;;;;4.86;91.65;100519.00;6372931;27;20501;-76
2022/12/29 11:29:41;;;;;;;4.77;2.93;;;;;;;5.31;90.44;100538.31;6371992;27;20069;-77
2022/12/29 11:32:52;;;;;;;;;;;;;;;5.70;88.87;100535.34;6372193;27;20287;-77
2022/12/29 11:35:59;;;;;;;7.30;2.78;;;;;;;6.11;86.43;100530.53;6354723;27;19919;-76
2022/12/29 11:39:01;;;;;;;5.32;2.90;;;;;;;6.00;86.22;100520.53;6372654;27;20039;-81
2022/12/29 11:42:03;;;;;;;3.00;2.10;;;;;;;5.82;87.43;100530.59;6371678;27;20058;-81
2022/12/29 11:45:14;;;;;;;7.82;3.95;;;;;;;5.77;88.86;100535.09;6371692;27;20402;-81
2022/12/29 11:48:21;;;;;;;3.90;2.60;;;;;;;5.54;89.89;100528.09;6372730;27;20046;-75
2022/12/29 11:51:31;;;;;;;3.78;2.72;;;;;;;5.47;92.10;100536.94;6371275;27;20047;-76
2022/12/29 11:54:37;;;;;;;4.97;3.17;;;;;;;5.41;92.67;100526.78;6371607;27;20035;-76
2022/12/29 11:57:41;;;;;;;9.32;3.08;;;;;;;5.29;92.94;100522.00;6354332;27;20051;-76
2022/12/29 12:00:44;;;;;;;4.50;2.25;;;;;;;5.39;94.21;100523.38;6371215;27;20047;-81
2022/12/29 12:04:01;;;;;;;5.90;3.55;;;;;;;5.40;93.61;100536.28;6353849;27;20092;-81
2022/12/29 12:07:13;;;;;;;4.40;2.42;;;;;;;5.34;94.83;100538.22;6353930;27;20436;-81
2022/12/29 12:10:29;;;;;;;6.53;2.72;;;;;;;5.34;94.70;100527.88;6371073;27;20043;-80
2022/12/29 12:13:36;;;;;;;8.45;3.95;;;;;;;5.24;96.57;100528.16;6372338;27;20043;-80
2022/12/29 12:16:48;;;;;;;6.63;4.30;;;;;;;5.10;97.81;100526.91;6372195;27;20502;-81
2022/12/29 12:20:05;;;;;;;13.05;5.28;;;;;;;5.06;97.36;100528.72;6369179;27;20045;-77
2022/12/29 12:23:30;;;;;;;15.82;6.75;;;;;;;5.19;97.10;100518.88;6372447;27;20039;-76
2022/12/29 12:27:00;;;;;;;16.42;5.38;;;;;;;5.28;97.87;100509.97;6370576;27;20039;-78
2022/12/29 12:30:05;;;;;;;15.07;6.90;;;;;;;5.30;96.69;100510.75;6370833;28;20086;-78
2022/12/29 12:33:13;;;;;;;12.48;6.47;;;;;;;5.24;97.71;100509.22;6353577;28;20504;-77
2022/12/29 12:36:21;;;;;;;13.05;6.30;;;;;;;5.18;98.56;100506.81;6353519;28;20059;-77
2022/12/29 12:39:37;;;;;;;14.05;7.10;;;;;;;5.17;97.14;100492.19;6370195;27;20118;-81
2022/12/29 12:43:21;;;;;;;12.80;6.05;;;;;;;5.25;97.41;100492.81;6370424;28;20042;-81
2022/12/29 12:46:41;;;;;;;9.07;5.38;;;;;;;5.22;97.08;100492.88;6332104;27;20063;-82
2022/12/29 12:50:00;;;;;;;9.20;5.00;;;;;;;5.19;97.97;100493.84;6354858;27;20031;-82
2022/12/29 12:53:17;;;;;;;4.75;2.95;;;;;;;5.25;97.48;100487.63;6362267;28;20050;-79
2022/12/29 12:56:21;;;;;;;9.23;3.83;;;;;;;5.29;98.42;100486.59;6369044;27;20059;-81
2022/12/29 12:59:40;;;;;;;8.32;3.65;;;;;;;5.27;99.50;100477.22;6362736;27;20148;-76
2022/12/29 13:02:58;;;;;;;9.98;4.82;;;;;;;5.30;100.00;100469.34;6361561;28;20405;-82
2022/12/29 13:06:26;;;;;;;8.63;3.90;;;;;;;5.23;100.00;100466.97;6356210;28;20043;-75
2022/12/29 13:09:56;;;;;;;5.55;3.60;;;;;;;5.33;99.87;100462.31;6384869;27;20123;-77
2022/12/29 13:13:15;;;;;;;4.70;3.60;;;;;;;5.41;100.00;100465.50;6302653;28;20398;-82
2022/12/29 13:16:46;;;;;;;7.68;3.58;;;;;;;5.42;99.97;100463.78;6361850;27;20390;-75
2022/12/29 13:20:13;;;;;;;6.20;3.45;;;;;;;5.38;100.00;100457.03;6359294;27;20417;-76
2022/12/29 13:23:31;;;;;;;4.78;2.97;;;;;;;5.44;100.00;100444.72;6356566;27;20055;-78
2022/12/29 13:26:44;;;;;;;4.78;2.58;;;;;;;5.51;100.00;100441.91;6347120;28;20495;-77
2022/12/29 13:30:01;;;;;;;6.55;3.15;;;;;;;5.56;100.00;100445.19;6352348;27;20108;-76
2022/12/29 13:33:23;;;;;;;5.25;3.03;;;;;;;5.59;100.00;100434.75;6359662;27;20051;-81
2022/12/29 13:36:37;;;;;;;8.65;3.60;;;;;;;5.63;100.00;100437.16;6368330;27;20433;-76
2022/12/29 13:39:45;;;;;;;5.20;3.47;;;;;;;5.55;100.00;100421.03;6371586;27;20497;-76
2022/12/29 13:42:47;;;;;;;13.80;5.22;;;;;;;5.64;100.00;100432.81;6357468;27;20498;-76
2022/12/29 13:45:58;;;;;;;5.63;3.25;;;;;;;5.61;100.00;100430.34;6367714;27;20035;-76
2022/12/29 13:49:07;;;;;;;6.25;3.45;;;;;;;5.65;100.00;100440.53;6359537;27;20047;-80
2022/12/29 13:52:32;;;;;;;7.43;4.10;;;;;;;5.62;100.00;100430.31;6354817;27;20044;-76
2022/12/29 13:55:57;;;;;;;14.57;5.53;;;;;;;5.64;100.00;100433.69;6332492;27;20154;-76
2022/12/29 13:59:09;;;;;;;9.90;3.97;;;;;;;5.72;100.00;100441.16;6362315;27;20108;-80
2022/12/29 14:02:31;;;;;;;13.27;5.03;;;;;;;5.72;100.00;100435.16;6348076;27;20413;-76
2022/12/29 14:05:33;;;;;;;10.47;5.40;;;;;;;5.71;100.00;100420.53;6346698;28;20494;-80
2022/12/29 14:08:35;;;;;;;9.63;4.60;;;;;;;5.64;100.00;100420.75;6348439;27;20507;-76
2022/12/29 14:11:39;;;;;;;12.85;5.28;;;;;;;5.73;100.00;100429.09;6355341;27;20443;-76
2022/12/29 14:14:40;;;;;;;10.38;4.05;;;;;;;5.72;100.00;100436.00;6356947;27;20112;-80
2022/12/29 14:17:43;;;;;;;14.32;5.88;;;;;;;5.75;100.00;100425.53;6371612;27;20498;-76
2022/12/29 14:21:10;;;;;;;14.20;5.78;;;;;;;5.79;100.00;100434.91;6358749;27;20108;-76
2022/12/29 14:24:45;;;;;;;22.98;6.90;;;;;;;5.81;100.00;100434.84;6354167;27;20066;-76
2022/12/29 14:27:57;;;;;;;21.50;6.75;;;;;;;5.80;100.00;100428.78;6369531;27;20059;-76
2022/12/29 14:31:03;;;;;;;22.02;11.35;;;;;;;5.78;100.00;100430.59;6358064;27;20549;-76
2022/12/29 14:34:07;;;;;;;22.40;12.85;;;;;;;5.85;100.00;100441.59;6362702;27;20554;-76
2022/12/29 14:37:29;;;;;;;22.92;10.38;;;;;;;5.75;100.00;100438.50;6359914;27;20051;-76
2022/12/29 14:40:33;;;;;;;30.40;12.07;;;;;;;5.81;100.00;100434.84;6351782;27;20130;-76
2022/12/29 14:43:34;;;;;;;17.55;8.57;;;;;;;5.82;100.00;100429.59;6372591;27;20047;-80
2022/12/29 14:47:08;;;;;;;17.10;7.68;;;;;;;5.81;100.00;100429.66;6357704;27;20128;-81
2022/12/29 14:50:22;;;;;;;9.10;6.10;;;;;;;5.82;100.00;100444.28;6350364;27;20040;-80
2022/12/29 14:53:42;;;;;;;13.40;7.60;;;;;;;5.73;100.00;100435.09;6371365;27;20070;-80
2022/12/29 14:56:45;;;;;;;10.75;5.82;;;;;;;5.75;100.00;100435.91;6357083;27;20513;-76
2022/12/29 14:59:48;;;;;;;9.73;5.85;;;;;;;5.72;100.00;100441.16;6345509;27;20122;-81
2022/12/29 15:03:23;;;;;;;20.98;8.10;;;;;;;5.72;100.00;100448.09;6355503;27;20044;-80
2022/12/29 15:06:27;;;;;;;17.17;7.75;;;;;;;5.66;100.00;100451.72;6346576;28;20448;-76
2022/12/29 15:09:36;;;;;;;22.17;12.25;;;;;;;5.61;100.00;100451.06;6346113;28;20044;-80
2022/12/29 15:12:51;;;;;;;27.25;14.15;;;;;;;5.57;100.00;100459.81;6329416;28;20199;-80